sensor_id;sensor_type;location;lat;lon;timestamp;pressure;altitude;pressure_sealevel;temperature;humidity
72975;BME280;61166;54.228;37.632;2022-08-19T00:02:25;99686.94;;;18.43;74.82
72975;BME280;61166;54.228;37.632;2022-08-19T00:04:50;99695.06;;;18.58;74.28
72975;BME280;61166;54.228;37.632;2022-08-19T00:07:18;99703.63;;;18.87;72.80
72975;BME280;61166;54.228;37.632;2022-08-19T00:09:44;99708.47;;;18.90;72.58
72975;BME280;61166;54.228;37.632;2022-08-19T00:12:10;99710.81;;;18.87;72.87
72975;BME280;61166;54.228;37.632;2022-08-19T00:14:35;99714.19;;;19.04;71.85
72975;BME280;61166;54.228;37.632;2022-08-19T00:17:02;99712.84;;;19.06;71.68
72975;BME280;61166;54.228;37.632;2022-08-19T00:19:28;99716.75;;;18.94;72.29
72975;BME280;61166;54.228;37.632;2022-08-19T00:21:54;99722.94;;;18.72;72.84
72975;BME280;61166;54.228;37.632;2022-08-19T00:24:21;99725.41;;;18.57;73.47
72975;BME280;61166;54.228;37.632;2022-08-19T00:26:47;99721.31;;;18.44;74.25
72975;BME280;61166;54.228;37.632;2022-08-19T00:29:16;99733.81;;;18.44;74.49
72975;BME280;61166;54.228;37.632;2022-08-19T00:31:43;99739.28;;;18.59;73.95
72975;BME280;61166;54.228;37.632;2022-08-19T00:34:10;99737.59;;;18.48;74.86
72975;BME280;61166;54.228;37.632;2022-08-19T00:36:36;99739.13;;;18.44;76.39
72975;BME280;61166;54.228;37.632;2022-08-19T00:39:02;99737.81;;;18.03;78.61
72975;BME280;61166;54.228;37.632;2022-08-19T00:44:05;99742.25;;;17.42;nan
72975;BME280;61166;54.228;37.632;2022-08-19T00:46:32;99737.75;;;17.26;nan
72975;BME280;61166;54.228;37.632;2022-08-19T00:49:00;99744.50;;;17.16;nan
72975;BME280;61166;54.228;37.632;2022-08-19T00:51:27;99747.47;;;17.03;nan
72975;BME280;61166;54.228;37.632;2022-08-19T00:53:55;99747.13;;;17.00;nan
72975;BME280;61166;54.228;37.632;2022-08-19T00:56:22;99743.16;;;16.86;nan
72975;BME280;61166;54.228;37.632;2022-08-19T00:58:48;99747.19;;;16.71;nan
72975;BME280;61166;54.228;37.632;2022-08-19T01:01:15;99746.38;;;16.59;nan
72975;BME280;61166;54.228;37.632;2022-08-19T01:03:41;99751.59;;;16.54;nan
72975;BME280;61166;54.228;37.632;2022-08-19T01:06:06;99747.66;;;16.57;nan
72975;BME280;61166;54.228;37.632;2022-08-19T01:08:33;99756.66;;;16.56;nan
72975;BME280;61166;54.228;37.632;2022-08-19T01:10:59;99753.09;;;16.50;nan
72975;BME280;61166;54.228;37.632;2022-08-19T01:13:30;99754.16;;;16.49;nan
72975;BME280;61166;54.228;37.632;2022-08-19T01:16:04;99742.94;;;16.47;nan
72975;BME280;61166;54.228;37.632;2022-08-19T01:18:32;99749.63;;;16.49;nan
72975;BME280;61166;54.228;37.632;2022-08-19T01:21:01;99746.53;;;16.41;nan
72975;BME280;61166;54.228;37.632;2022-08-19T01:23:28;99755.31;;;16.41;nan
72975;BME280;61166;54.228;37.632;2022-08-19T01:26:16;99752.28;;;16.49;nan
72975;BME280;61166;54.228;37.632;2022-08-19T01:28:44;99741.34;;;16.46;nan
72975;BME280;61166;54.228;37.632;2022-08-19T01:31:16;99743.09;;;16.40;nan
72975;BME280;61166;54.228;37.632;2022-08-19T01:33:41;99738.59;;;16.41;nan
72975;BME280;61166;54.228;37.632;2022-08-19T01:36:12;99737.41;;;16.48;nan
72975;BME280;61166;54.228;37.632;2022-08-19T01:38:40;99730.72;;;16.46;nan
72975;BME280;61166;54.228;37.632;2022-08-19T01:41:08;99736.69;;;16.53;nan
72975;BME280;61166;54.228;37.632;2022-08-19T01:43:34;99742.00;;;16.53;nan
72975;BME280;61166;54.228;37.632;2022-08-19T01:45:59;99731.63;;;16.51;nan
72975;BME280;61166;54.228;37.632;2022-08-19T01:48:26;99733.34;;;16.58;nan
72975;BME280;61166;54.228;37.632;2022-08-19T01:50:51;99727.44;;;16.67;nan
72975;BME280;61166;54.228;37.632;2022-08-19T01:53:17;99716.81;;;16.67;nan
72975;BME280;61166;54.228;37.632;2022-08-19T01:55:43;99724.38;;;16.75;nan
72975;BME280;61166;54.228;37.632;2022-08-19T01:58:21;99720.84;;;16.70;nan
72975;BME280;61166;54.228;37.632;2022-08-19T02:00:48;99706.28;;;16.72;nan
72975;BME280;61166;54.228;37.632;2022-08-19T02:03:14;99702.81;;;16.72;nan
72975;BME280;61166;54.228;37.632;2022-08-19T02:05:40;99702.19;;;16.81;nan
72975;BME280;61166;54.228;37.632;2022-08-19T02:08:06;99697.75;;;16.87;nan
72975;BME280;61166;54.228;37.632;2022-08-19T02:10:31;99701.22;;;16.88;nan
72975;BME280;61166;54.228;37.632;2022-08-19T02:12:57;99704.91;;;16.87;nan
72975;BME280;61166;54.228;37.632;2022-08-19T02:15:22;99703.63;;;16.89;nan
72975;BME280;61166;54.228;37.632;2022-08-19T02:17:48;99690.75;;;16.81;nan
72975;BME280;61166;54.228;37.632;2022-08-19T02:20:15;99696.78;;;16.76;nan
72975;BME280;61166;54.228;37.632;2022-08-19T02:22:41;99707.00;;;16.84;nan
72975;BME280;61166;54.228;37.632;2022-08-19T02:25:09;99717.16;;;16.88;nan
72975;BME280;61166;54.228;37.632;2022-08-19T02:27:35;99720.25;;;16.96;nan
72975;BME280;61166;54.228;37.632;2022-08-19T02:30:00;99717.81;;;16.95;nan
72975;BME280;61166;54.228;37.632;2022-08-19T02:32:26;99714.22;;;17.01;nan
72975;BME280;61166;54.228;37.632;2022-08-19T02:34:52;99718.72;;;17.00;nan
72975;BME280;61166;54.228;37.632;2022-08-19T02:37:18;99725.56;;;17.13;nan
72975;BME280;61166;54.228;37.632;2022-08-19T02:40:02;99736.69;;;17.10;nan
72975;BME280;61166;54.228;37.632;2022-08-19T02:42:28;99735.41;;;17.12;nan
72975;BME280;61166;54.228;37.632;2022-08-19T02:44:55;99736.22;;;17.13;nan
72975;BME280;61166;54.228;37.632;2022-08-19T02:47:21;99722.03;;;17.24;nan
72975;BME280;61166;54.228;37.632;2022-08-19T02:49:46;99729.91;;;17.36;nan
72975;BME280;61166;54.228;37.632;2022-08-19T02:52:13;99722.75;;;17.36;nan
72975;BME280;61166;54.228;37.632;2022-08-19T02:54:39;99720.72;;;17.43;nan
72975;BME280;61166;54.228;37.632;2022-08-19T02:57:05;99715.81;;;17.35;nan
72975;BME280;61166;54.228;37.632;2022-08-19T02:59:31;99719.94;;;17.26;nan
72975;BME280;61166;54.228;37.632;2022-08-19T03:01:57;99720.56;;;17.33;nan
72975;BME280;61166;54.228;37.632;2022-08-19T03:04:22;99723.97;;;17.29;nan
72975;BME280;61166;54.228;37.632;2022-08-19T03:06:49;99724.78;;;17.29;nan
72975;BME280;61166;54.228;37.632;2022-08-19T03:09:16;99724.66;;;17.41;nan
72975;BME280;61166;54.228;37.632;2022-08-19T03:11:43;99721.38;;;17.50;nan
72975;BME280;61166;54.228;37.632;2022-08-19T03:14:09;99723.22;;;17.50;nan
72975;BME280;61166;54.228;37.632;2022-08-19T03:16:44;99726.28;;;17.59;nan
72975;BME280;61166;54.228;37.632;2022-08-19T03:19:11;99737.56;;;17.49;nan
72975;BME280;61166;54.228;37.632;2022-08-19T03:21:36;99738.78;;;17.58;nan
72975;BME280;61166;54.228;37.632;2022-08-19T03:24:05;99743.59;;;17.61;nan
72975;BME280;61166;54.228;37.632;2022-08-19T03:26:31;99743.38;;;17.79;nan
72975;BME280;61166;54.228;37.632;2022-08-19T03:28:57;99747.25;;;18.10;nan
72975;BME280;61166;54.228;37.632;2022-08-19T03:31:23;99750.69;;;18.11;nan
72975;BME280;61166;54.228;37.632;2022-08-19T03:33:50;99745.88;;;18.08;nan
72975;BME280;61166;54.228;37.632;2022-08-19T03:36:22;99745.13;;;17.91;nan
72975;BME280;61166;54.228;37.632;2022-08-19T03:38:55;99734.41;;;17.86;nan
72975;BME280;61166;54.228;37.632;2022-08-19T03:41:23;99741.03;;;17.83;nan
72975;BME280;61166;54.228;37.632;2022-08-19T03:43:49;99745.09;;;17.69;nan
72975;BME280;61166;54.228;37.632;2022-08-19T03:46:29;99745.78;;;17.47;nan
72975;BME280;61166;54.228;37.632;2022-08-19T03:48:57;99754.31;;;17.49;nan
72975;BME280;61166;54.228;37.632;2022-08-19T03:51:28;99756.03;;;17.56;nan
72975;BME280;61166;54.228;37.632;2022-08-19T03:53:56;99760.69;;;17.48;nan
72975;BME280;61166;54.228;37.632;2022-08-19T03:56:22;99765.94;;;17.43;nan
72975;BME280;61166;54.228;37.632;2022-08-19T03:58:50;99778.25;;;17.49;nan
72975;BME280;61166;54.228;37.632;2022-08-19T04:01:19;99771.81;;;17.45;nan
72975;BME280;61166;54.228;37.632;2022-08-19T04:03:45;99786.03;;;17.68;nan
72975;BME280;61166;54.228;37.632;2022-08-19T04:06:13;99783.75;;;17.60;nan
72975;BME280;61166;54.228;37.632;2022-08-19T04:08:40;99773.59;;;17.57;nan
72975;BME280;61166;54.228;37.632;2022-08-19T04:11:08;99785.69;;;17.47;nan
72975;BME280;61166;54.228;37.632;2022-08-19T04:13:33;99785.69;;;17.31;nan
72975;BME280;61166;54.228;37.632;2022-08-19T04:15:59;99784.00;;;17.25;nan
72975;BME280;61166;54.228;37.632;2022-08-19T04:18:24;99794.22;;;17.33;nan
72975;BME280;61166;54.228;37.632;2022-08-19T04:20:50;99786.97;;;17.28;nan
72975;BME280;61166;54.228;37.632;2022-08-19T04:23:16;99790.19;;;17.30;nan
72975;BME280;61166;54.228;37.632;2022-08-19T04:25:43;99794.53;;;17.53;nan
72975;BME280;61166;54.228;37.632;2022-08-19T04:28:11;99783.09;;;17.53;nan
72975;BME280;61166;54.228;37.632;2022-08-19T04:30:48;99792.28;;;17.62;nan
72975;BME280;61166;54.228;37.632;2022-08-19T04:33:15;99784.41;;;17.67;nan
72975;BME280;61166;54.228;37.632;2022-08-19T04:35:44;99783.94;;;17.70;nan
72975;BME280;61166;54.228;37.632;2022-08-19T04:38:10;99781.50;;;17.68;nan
72975;BME280;61166;54.228;37.632;2022-08-19T04:40:44;99796.81;;;17.78;nan
72975;BME280;61166;54.228;37.632;2022-08-19T04:43:29;99789.09;;;17.76;nan
72975;BME280;61166;54.228;37.632;2022-08-19T04:45:55;99795.38;;;17.87;nan
72975;BME280;61166;54.228;37.632;2022-08-19T04:48:20;99788.06;;;17.99;nan
72975;BME280;61166;54.228;37.632;2022-08-19T04:50:57;99797.25;;;18.08;nan
72975;BME280;61166;54.228;37.632;2022-08-19T04:53:28;99792.13;;;18.24;nan
72975;BME280;61166;54.228;37.632;2022-08-19T04:55:55;99784.84;;;18.36;nan
72975;BME280;61166;54.228;37.632;2022-08-19T04:58:22;99788.53;;;18.57;nan
72975;BME280;61166;54.228;37.632;2022-08-19T05:00:48;99787.31;;;18.64;nan
72975;BME280;61166;54.228;37.632;2022-08-19T05:03:13;99791.09;;;18.68;nan
72975;BME280;61166;54.228;37.632;2022-08-19T05:05:41;99790.84;;;18.92;nan
72975;BME280;61166;54.228;37.632;2022-08-19T05:08:06;99796.94;;;19.19;nan
72975;BME280;61166;54.228;37.632;2022-08-19T05:10:35;99788.50;;;19.27;nan
72975;BME280;61166;54.228;37.632;2022-08-19T05:13:01;99797.22;;;19.50;nan
72975;BME280;61166;54.228;37.632;2022-08-19T05:15:27;99792.00;;;19.60;nan
72975;BME280;61166;54.228;37.632;2022-08-19T05:17:52;99789.97;;;19.77;nan
72975;BME280;61166;54.228;37.632;2022-08-19T05:20:46;99771.94;;;19.94;nan
72975;BME280;61166;54.228;37.632;2022-08-19T05:23:31;99765.38;;;20.22;nan
72975;BME280;61166;54.228;37.632;2022-08-19T05:25:56;99760.44;;;20.41;nan
72975;BME280;61166;54.228;37.632;2022-08-19T05:28:21;99754.34;;;20.61;nan
72975;BME280;61166;54.228;37.632;2022-08-19T05:30:47;99761.88;;;20.89;nan
72975;BME280;61166;54.228;37.632;2022-08-19T05:33:15;99761.94;;;21.50;nan
72975;BME280;61166;54.228;37.632;2022-08-19T05:35:40;99755.69;;;22.11;nan
72975;BME280;61166;54.228;37.632;2022-08-19T05:38:07;99760.25;;;22.64;nan
72975;BME280;61166;54.228;37.632;2022-08-19T05:40:35;99748.31;;;23.30;nan
72975;BME280;61166;54.228;37.632;2022-08-19T05:43:04;99750.75;;;23.26;nan
72975;BME280;61166;54.228;37.632;2022-08-19T05:45:30;99738.84;;;23.37;nan
72975;BME280;61166;54.228;37.632;2022-08-19T05:47:56;99745.63;;;23.88;nan
72975;BME280;61166;54.228;37.632;2022-08-19T05:50:21;99739.44;;;24.35;nan
72975;BME280;61166;54.228;37.632;2022-08-19T05:52:47;99752.38;;;24.09;nan
72975;BME280;61166;54.228;37.632;2022-08-19T05:55:13;99746.09;;;23.95;nan
72975;BME280;61166;54.228;37.632;2022-08-19T05:57:39;99738.25;;;23.75;nan
72975;BME280;61166;54.228;37.632;2022-08-19T06:00:06;99736.56;;;23.21;nan
72975;BME280;61166;54.228;37.632;2022-08-19T06:02:36;99740.06;;;22.87;nan
72975;BME280;61166;54.228;37.632;2022-08-19T06:05:03;99731.91;;;23.02;nan
72975;BME280;61166;54.228;37.632;2022-08-19T06:07:29;99745.09;;;22.94;nan
72975;BME280;61166;54.228;37.632;2022-08-19T06:09:55;99731.63;;;22.55;nan
72975;BME280;61166;54.228;37.632;2022-08-19T06:12:20;99732.00;;;23.21;nan
72975;BME280;61166;54.228;37.632;2022-08-19T06:14:51;99715.53;;;23.33;nan
72975;BME280;61166;54.228;37.632;2022-08-19T06:17:19;99723.03;;;23.07;nan
72975;BME280;61166;54.228;37.632;2022-08-19T06:19:44;99741.53;;;22.59;nan
72975;BME280;61166;54.228;37.632;2022-08-19T06:22:10;99731.53;;;22.75;nan
72975;BME280;61166;54.228;37.632;2022-08-19T06:24:38;99730.19;;;22.72;nan
72975;BME280;61166;54.228;37.632;2022-08-19T06:27:03;99731.97;;;22.43;nan
72975;BME280;61166;54.228;37.632;2022-08-19T06:29:30;99748.75;;;22.04;nan
72975;BME280;61166;54.228;37.632;2022-08-19T06:31:59;99733.19;;;22.06;nan
72975;BME280;61166;54.228;37.632;2022-08-19T06:34:27;99737.44;;;22.23;nan
72975;BME280;61166;54.228;37.632;2022-08-19T06:36:53;99733.16;;;22.22;nan
72975;BME280;61166;54.228;37.632;2022-08-19T06:39:22;99732.72;;;22.54;nan
72975;BME280;61166;54.228;37.632;2022-08-19T06:41:53;99747.56;;;22.85;nan
72975;BME280;61166;54.228;37.632;2022-08-19T06:44:20;99732.34;;;23.44;nan
72975;BME280;61166;54.228;37.632;2022-08-19T06:46:46;99732.78;;;23.85;nan
72975;BME280;61166;54.228;37.632;2022-08-19T06:49:12;99722.53;;;23.87;nan
72975;BME280;61166;54.228;37.632;2022-08-19T06:51:43;99714.88;;;24.23;nan
72975;BME280;61166;54.228;37.632;2022-08-19T06:54:09;99724.00;;;24.64;nan
72975;BME280;61166;54.228;37.632;2022-08-19T06:56:35;99722.97;;;24.60;nan
72975;BME280;61166;54.228;37.632;2022-08-19T06:59:03;99723.28;;;24.59;nan
72975;BME280;61166;54.228;37.632;2022-08-19T07:01:30;99721.97;;;24.56;nan
72975;BME280;61166;54.228;37.632;2022-08-19T07:03:59;99726.06;;;24.30;nan
72975;BME280;61166;54.228;37.632;2022-08-19T07:06:25;99723.78;;;24.18;nan
72975;BME280;61166;54.228;37.632;2022-08-19T07:08:50;99732.25;;;23.83;nan
72975;BME280;61166;54.228;37.632;2022-08-19T07:11:17;99728.72;;;23.87;nan
72975;BME280;61166;54.228;37.632;2022-08-19T07:13:44;99721.69;;;23.67;nan
72975;BME280;61166;54.228;37.632;2022-08-19T07:16:13;99745.34;;;23.65;nan
72975;BME280;61166;54.228;37.632;2022-08-19T07:18:39;99737.66;;;23.54;nan
72975;BME280;61166;54.228;37.632;2022-08-19T07:21:05;99746.38;;;23.93;nan
72975;BME280;61166;54.228;37.632;2022-08-19T07:23:31;99763.59;;;23.92;nan
72975;BME280;61166;54.228;37.632;2022-08-19T07:25:56;99749.88;;;24.18;nan
72975;BME280;61166;54.228;37.632;2022-08-19T07:28:22;99762.00;;;24.58;nan
72975;BME280;61166;54.228;37.632;2022-08-19T07:30:48;99759.69;;;24.03;nan
72975;BME280;61166;54.228;37.632;2022-08-19T07:33:15;99813.25;;;23.95;nan
72975;BME280;61166;54.228;37.632;2022-08-19T07:35:41;99789.31;;;23.69;nan
72975;BME280;61166;54.228;37.632;2022-08-19T07:38:07;99783.66;;;23.71;nan
72975;BME280;61166;54.228;37.632;2022-08-19T07:40:32;99797.81;;;23.48;nan
72975;BME280;61166;54.228;37.632;2022-08-19T07:42:59;99814.25;;;23.41;nan
72975;BME280;61166;54.228;37.632;2022-08-19T07:45:24;99785.69;;;23.21;nan
72975;BME280;61166;54.228;37.632;2022-08-19T07:47:50;99774.56;;;23.04;nan
72975;BME280;61166;54.228;37.632;2022-08-19T07:50:17;99799.28;;;22.96;nan
72975;BME280;61166;54.228;37.632;2022-08-19T07:52:44;99779.69;;;22.41;nan
72975;BME280;61166;54.228;37.632;2022-08-19T07:55:10;99779.00;;;22.10;nan
72975;BME280;61166;54.228;37.632;2022-08-19T07:57:36;99789.47;;;22.01;nan
72975;BME280;61166;54.228;37.632;2022-08-19T08:00:04;99761.09;;;21.85;nan
72975;BME280;61166;54.228;37.632;2022-08-19T08:02:29;99764.31;;;21.87;nan
72975;BME280;61166;54.228;37.632;2022-08-19T08:04:55;99779.25;;;22.08;nan
72975;BME280;61166;54.228;37.632;2022-08-19T08:07:39;99766.94;;;22.13;nan
72975;BME280;61166;54.228;37.632;2022-08-19T08:10:23;99776.31;;;22.10;nan
72975;BME280;61166;54.228;37.632;2022-08-19T08:12:48;99770.41;;;22.13;nan
72975;BME280;61166;54.228;37.632;2022-08-19T08:15:15;99781.41;;;21.96;nan
72975;BME280;61166;54.228;37.632;2022-08-19T08:17:42;99789.47;;;21.86;nan
72975;BME280;61166;54.228;37.632;2022-08-19T08:20:08;99796.19;;;21.89;nan
72975;BME280;61166;54.228;37.632;2022-08-19T08:22:34;99797.53;;;21.71;nan
72975;BME280;61166;54.228;37.632;2022-08-19T08:25:21;99800.19;;;21.81;nan
72975;BME280;61166;54.228;37.632;2022-08-19T08:27:48;99807.97;;;21.83;nan
72975;BME280;61166;54.228;37.632;2022-08-19T08:30:23;99801.00;;;21.71;nan
72975;BME280;61166;54.228;37.632;2022-08-19T08:32:49;99799.66;;;21.38;nan
72975;BME280;61166;54.228;37.632;2022-08-19T08:35:18;99806.66;;;21.34;nan
72975;BME280;61166;54.228;37.632;2022-08-19T08:37:46;99814.59;;;21.04;nan
72975;BME280;61166;54.228;37.632;2022-08-19T08:40:22;99810.00;;;20.89;nan
72975;BME280;61166;54.228;37.632;2022-08-19T08:42:57;99827.25;;;20.51;nan
72975;BME280;61166;54.228;37.632;2022-08-19T08:45:26;99835.72;;;19.91;nan
72975;BME280;61166;54.228;37.632;2022-08-19T08:47:55;99830.25;;;18.90;nan
72975;BME280;61166;54.228;37.632;2022-08-19T08:50:39;99834.78;;;18.45;nan
72975;BME280;61166;54.228;37.632;2022-08-19T08:53:08;99857.13;;;17.89;nan
72975;BME280;61166;54.228;37.632;2022-08-19T08:55:34;99849.16;;;17.89;nan
72975;BME280;61166;54.228;37.632;2022-08-19T08:58:07;99869.38;;;17.73;nan
72975;BME280;61166;54.228;37.632;2022-08-19T09:00:38;99845.84;;;17.65;nan
72975;BME280;61166;54.228;37.632;2022-08-19T09:03:26;99849.50;;;17.47;nan
72975;BME280;61166;54.228;37.632;2022-08-19T09:06:10;99841.44;;;17.42;nan
72975;BME280;61166;54.228;37.632;2022-08-19T09:09:03;99843.53;;;17.40;nan
72975;BME280;61166;54.228;37.632;2022-08-19T09:16:59;99857.00;;;17.05;nan
72975;BME280;61166;54.228;37.632;2022-08-19T09:19:24;99841.47;;;16.86;nan
72975;BME280;61166;54.228;37.632;2022-08-19T09:21:49;99836.34;;;16.96;nan
72975;BME280;61166;54.228;37.632;2022-08-19T09:24:15;99819.44;;;17.02;nan
72975;BME280;61166;54.228;37.632;2022-08-19T09:26:41;99853.47;;;16.88;nan
72975;BME280;61166;54.228;37.632;2022-08-19T09:29:09;99836.53;;;17.06;nan
72975;BME280;61166;54.228;37.632;2022-08-19T09:31:35;99836.06;;;17.09;nan
72975;BME280;61166;54.228;37.632;2022-08-19T09:34:01;99815.66;;;16.98;nan
72975;BME280;61166;54.228;37.632;2022-08-19T09:36:30;99814.13;;;17.02;nan
72975;BME280;61166;54.228;37.632;2022-08-19T09:38:58;99828.31;;;17.07;nan
72975;BME280;61166;54.228;37.632;2022-08-19T09:41:25;99785.19;;;17.17;nan
72975;BME280;61166;54.228;37.632;2022-08-19T09:43:54;99781.16;;;17.14;nan
72975;BME280;61166;54.228;37.632;2022-08-19T09:46:26;99776.16;;;17.18;nan
72975;BME280;61166;54.228;37.632;2022-08-19T09:48:52;99783.59;;;17.33;nan
72975;BME280;61166;54.228;37.632;2022-08-19T09:51:23;99786.63;;;17.41;nan
72975;BME280;61166;54.228;37.632;2022-08-19T09:53:51;99784.16;;;17.52;nan
72975;BME280;61166;54.228;37.632;2022-08-19T09:56:19;99785.84;;;17.58;nan
72975;BME280;61166;54.228;37.632;2022-08-19T09:58:45;99790.69;;;17.61;nan
72975;BME280;61166;54.228;37.632;2022-08-19T10:01:20;99800.09;;;17.52;nan
72975;BME280;61166;54.228;37.632;2022-08-19T10:03:51;99802.59;;;17.58;nan
72975;BME280;61166;54.228;37.632;2022-08-19T10:06:20;99789.53;;;17.57;nan
72975;BME280;61166;54.228;37.632;2022-08-19T10:08:46;99792.84;;;17.64;nan
72975;BME280;61166;54.228;37.632;2022-08-19T10:11:11;99786.84;;;17.68;nan
72975;BME280;61166;54.228;37.632;2022-08-19T10:13:39;99789.25;;;17.70;nan
72975;BME280;61166;54.228;37.632;2022-08-19T10:16:11;99783.53;;;17.78;nan
72975;BME280;61166;54.228;37.632;2022-08-19T10:18:37;99804.72;;;17.90;nan
72975;BME280;61166;54.228;37.632;2022-08-19T10:21:09;99789.19;;;18.03;nan
72975;BME280;61166;54.228;37.632;2022-08-19T10:23:39;99793.13;;;18.18;nan
72975;BME280;61166;54.228;37.632;2022-08-19T10:26:06;99785.59;;;18.31;nan
72975;BME280;61166;54.228;37.632;2022-08-19T10:28:36;99791.78;;;18.37;nan
72975;BME280;61166;54.228;37.632;2022-08-19T10:31:10;99794.06;;;18.28;nan
72975;BME280;61166;54.228;37.632;2022-08-19T10:33:36;99792.91;;;18.41;nan
72975;BME280;61166;54.228;37.632;2022-08-19T10:36:09;99794.03;;;18.50;nan
72975;BME280;61166;54.228;37.632;2022-08-19T10:38:36;99792.66;;;18.64;nan
72975;BME280;61166;54.228;37.632;2022-08-19T10:41:13;99790.59;;;18.71;nan
72975;BME280;61166;54.228;37.632;2022-08-19T10:43:39;99799.47;;;18.77;nan
72975;BME280;61166;54.228;37.632;2022-08-19T10:46:08;99803.50;;;18.79;nan
72975;BME280;61166;54.228;37.632;2022-08-19T10:48:34;99798.88;;;18.97;nan
72975;BME280;61166;54.228;37.632;2022-08-19T10:51:01;99817.91;;;19.05;nan
72975;BME280;61166;54.228;37.632;2022-08-19T10:53:45;99813.03;;;19.29;nan
72975;BME280;61166;54.228;37.632;2022-08-19T10:56:10;99806.00;;;19.45;nan
72975;BME280;61166;54.228;37.632;2022-08-19T10:58:54;99816.66;;;19.45;nan
72975;BME280;61166;54.228;37.632;2022-08-19T11:01:23;99828.25;;;19.56;nan
72975;BME280;61166;54.228;37.632;2022-08-19T11:03:49;99836.50;;;19.54;nan
72975;BME280;61166;54.228;37.632;2022-08-19T11:06:15;99825.13;;;19.69;nan
72975;BME280;61166;54.228;37.632;2022-08-19T11:08:41;99850.75;;;19.70;nan
72975;BME280;61166;54.228;37.632;2022-08-19T11:11:10;99842.84;;;19.80;nan
72975;BME280;61166;54.228;37.632;2022-08-19T11:13:38;99853.84;;;19.89;nan
72975;BME280;61166;54.228;37.632;2022-08-19T11:16:11;99818.75;;;20.07;nan
72975;BME280;61166;54.228;37.632;2022-08-19T11:18:42;99854.28;;;20.13;nan
72975;BME280;61166;54.228;37.632;2022-08-19T11:21:20;99823.06;;;20.13;nan
72975;BME280;61166;54.228;37.632;2022-08-19T11:23:47;99835.56;;;20.07;nan
72975;BME280;61166;54.228;37.632;2022-08-19T11:26:14;99858.34;;;20.25;nan
72975;BME280;61166;54.228;37.632;2022-08-19T11:28:40;99826.00;;;20.17;nan
72975;BME280;61166;54.228;37.632;2022-08-19T11:31:11;99865.50;;;20.09;nan
72975;BME280;61166;54.228;37.632;2022-08-19T11:33:37;99868.56;;;19.91;nan
72975;BME280;61166;54.228;37.632;2022-08-19T11:36:02;99890.59;;;19.50;nan
72975;BME280;61166;54.228;37.632;2022-08-19T11:38:28;99887.09;;;18.95;nan
72975;BME280;61166;54.228;37.632;2022-08-19T11:41:00;99895.91;;;18.57;nan
72975;BME280;61166;54.228;37.632;2022-08-19T11:43:27;99855.03;;;18.46;nan
72975;BME280;61166;54.228;37.632;2022-08-19T11:45:54;99849.06;;;18.39;nan
72975;BME280;61166;54.228;37.632;2022-08-19T11:48:20;99834.06;;;18.33;nan
72975;BME280;61166;54.228;37.632;2022-08-19T11:50:52;99859.22;;;18.42;nan
72975;BME280;61166;54.228;37.632;2022-08-19T11:53:20;99843.25;;;18.42;nan
72975;BME280;61166;54.228;37.632;2022-08-19T11:55:47;99843.00;;;18.44;nan
72975;BME280;61166;54.228;37.632;2022-08-19T11:58:14;99844.22;;;18.58;nan
72975;BME280;61166;54.228;37.632;2022-08-19T12:00:41;99841.78;;;18.73;nan
72975;BME280;61166;54.228;37.632;2022-08-19T12:03:07;99833.19;;;18.66;nan
72975;BME280;61166;54.228;37.632;2022-08-19T12:05:33;99836.66;;;18.50;nan
72975;BME280;61166;54.228;37.632;2022-08-19T12:07:58;99834.47;;;18.42;nan
72975;BME280;61166;54.228;37.632;2022-08-19T12:10:24;99835.75;;;18.39;nan
72975;BME280;61166;54.228;37.632;2022-08-19T12:12:50;99839.44;;;18.17;nan
72975;BME280;61166;54.228;37.632;2022-08-19T12:15:15;99830.00;;;18.09;nan
72975;BME280;61166;54.228;37.632;2022-08-19T12:17:42;99826.47;;;18.03;nan
72975;BME280;61166;54.228;37.632;2022-08-19T12:20:09;99827.44;;;17.97;nan
72975;BME280;61166;54.228;37.632;2022-08-19T12:22:39;99818.88;;;17.95;nan
72975;BME280;61166;54.228;37.632;2022-08-19T12:25:08;99825.34;;;17.99;nan
72975;BME280;61166;54.228;37.632;2022-08-19T12:27:34;99828.94;;;18.10;nan
72975;BME280;61166;54.228;37.632;2022-08-19T12:30:01;99823.50;;;18.38;nan
72975;BME280;61166;54.228;37.632;2022-08-19T12:32:27;99818.81;;;18.51;nan
72975;BME280;61166;54.228;37.632;2022-08-19T12:34:53;99824.72;;;18.53;nan
72975;BME280;61166;54.228;37.632;2022-08-19T12:37:19;99807.34;;;18.67;nan
72975;BME280;61166;54.228;37.632;2022-08-19T12:39:44;99821.56;;;18.99;nan
72975;BME280;61166;54.228;37.632;2022-08-19T12:42:11;99829.88;;;19.03;nan
72975;BME280;61166;54.228;37.632;2022-08-19T12:44:38;99825.53;;;19.24;nan
72975;BME280;61166;54.228;37.632;2022-08-19T12:47:05;99824.72;;;19.50;nan
72975;BME280;61166;54.228;37.632;2022-08-19T12:49:32;99810.69;;;19.60;nan
72975;BME280;61166;54.228;37.632;2022-08-19T12:52:05;99802.41;;;19.61;nan
72975;BME280;61166;54.228;37.632;2022-08-19T12:54:32;99803.22;;;19.62;nan
72975;BME280;61166;54.228;37.632;2022-08-19T12:56:58;99824.44;;;19.84;nan
72975;BME280;61166;54.228;37.632;2022-08-19T12:59:24;99837.16;;;19.71;nan
72975;BME280;61166;54.228;37.632;2022-08-19T13:01:50;99835.41;;;19.87;nan
72975;BME280;61166;54.228;37.632;2022-08-19T13:04:16;99834.41;;;19.93;nan
72975;BME280;61166;54.228;37.632;2022-08-19T13:06:41;99830.47;;;20.06;nan
72975;BME280;61166;54.228;37.632;2022-08-19T13:09:07;99849.72;;;20.08;nan
72975;BME280;61166;54.228;37.632;2022-08-19T13:11:33;99852.09;;;20.04;nan
72975;BME280;61166;54.228;37.632;2022-08-19T13:14:01;99854.44;;;19.96;nan
72975;BME280;61166;54.228;37.632;2022-08-19T13:16:27;99905.31;;;20.16;nan
72975;BME280;61166;54.228;37.632;2022-08-19T13:18:54;99967.19;;;19.76;nan
72975;BME280;61166;54.228;37.632;2022-08-19T13:21:23;99940.44;;;19.44;nan
72975;BME280;61166;54.228;37.632;2022-08-19T13:23:49;99959.03;;;18.73;nan